createdAt,value
2022-09-05T00:02:29.188Z,101936.27
2022-09-05T00:05:24.509Z,101942.69
2022-09-05T00:08:25.606Z,101941.02
2022-09-05T00:11:43.191Z,101941.55
2022-09-05T00:13:48.975Z,101940.84
2022-09-05T00:16:37.501Z,101939.03
2022-09-05T00:24:20.190Z,101932.23
2022-09-05T00:24:27.839Z,101931.31
2022-09-05T00:25:30.435Z,101932.05
2022-09-05T00:27:48.110Z,101928.78
2022-09-05T00:31:08.073Z,101930.72
2022-09-05T00:33:03.623Z,101928.56
2022-09-05T00:35:53.063Z,101928.39
2022-09-05T00:38:32.127Z,101930.78
2022-09-05T00:41:02.477Z,101925.63
2022-09-05T00:43:43.805Z,101922.97
2022-09-05T00:46:26.264Z,101917.09
2022-09-05T00:49:13.565Z,101916.11
2022-09-05T00:51:46.416Z,101920.58
2022-09-05T00:54:40.576Z,101920.69
2022-09-05T00:57:18.093Z,101917.08
2022-09-05T01:00:22.717Z,101917.08
2022-09-05T01:03:10.034Z,101923.89
2022-09-05T01:05:52.182Z,101923.92
2022-09-05T01:08:43.114Z,101917.63
2022-09-05T01:11:37.132Z,101918.35
2022-09-05T01:14:29.259Z,101921.90
2022-09-05T01:17:30.241Z,101915.70
2022-09-05T01:20:19.230Z,101921.39
2022-09-05T01:23:20.478Z,101922.38
2022-09-05T01:26:10.003Z,101918.38
2022-09-05T01:29:17.835Z,101917.03
2022-09-05T01:32:03.600Z,101915.86
2022-09-05T01:34:41.562Z,101925.49
2022-09-05T01:37:32.673Z,101917.85
2022-09-05T01:40:14.438Z,101917.85
2022-09-05T01:42:43.661Z,101914.19
2022-09-05T01:45:29.087Z,101915.86
2022-09-05T01:48:18.213Z,101919.70
2022-09-05T01:51:05.358Z,101911.47
2022-09-05T01:53:39.220Z,101914.09
2022-09-05T01:56:13.050Z,101911.58
2022-09-05T01:58:54.267Z,101915.27
2022-09-05T02:04:13.740Z,101913.24
2022-09-05T02:07:22.491Z,101916.94
2022-09-05T02:09:55.274Z,101920.86
2022-09-05T02:12:44.428Z,101923.56
2022-09-05T02:15:21.554Z,101919.12
2022-09-05T02:17:54.116Z,101924.61
2022-09-05T02:20:35.435Z,101921.59
2022-09-05T02:23:40.434Z,101923.88
2022-09-05T02:26:08.193Z,101921.69
2022-09-05T02:29:02.942Z,101917.70
2022-09-05T02:31:44.718Z,101918.63
2022-09-05T02:34:20.255Z,101914.92
2022-09-05T02:37:09.446Z,101925.03
2022-09-05T02:45:00.129Z,101915.53
2022-09-05T02:45:17.869Z,101923.14
2022-09-05T02:45:46.101Z,101917.22
2022-09-05T02:48:22.216Z,101926.12
2022-09-05T02:57:26.093Z,101919.92
2022-09-05T02:57:41.942Z,101921.37
2022-09-05T02:57:43.273Z,101914.09
2022-09-05T03:00:02.358Z,101918.36
2022-09-05T03:02:43.695Z,101920.91
2022-09-05T03:05:24.556Z,101920.91
2022-09-05T03:08:12.087Z,101923.37
2022-09-05T03:10:55.014Z,101924.41
2022-09-05T03:13:53.826Z,101917.78
2022-09-05T03:16:47.178Z,101925.63
2022-09-05T03:19:47.026Z,101922.61
2022-09-05T03:22:53.052Z,101919.97
2022-09-05T03:25:43.597Z,101921.80
2022-09-05T03:28:38.208Z,101925.30
2022-09-05T03:31:26.319Z,101929.22
2022-09-05T03:34:32.087Z,101930.66
2022-09-05T03:37:33.182Z,101931.98
2022-09-05T03:40:15.735Z,101930.91
2022-09-05T03:43:00.931Z,101927.00
2022-09-05T03:45:54.311Z,101931.91
2022-09-05T03:48:44.512Z,101933.35
2022-09-05T03:57:08.886Z,101939.73
2022-09-05T03:57:16.383Z,101942.26
2022-09-05T03:57:18.761Z,101943.57
2022-09-05T03:59:55.957Z,101936.83
2022-09-05T04:04:39.237Z,101929.92
2022-09-05T04:08:17.884Z,101936.66
2022-09-05T04:08:27.565Z,101931.61
2022-09-05T04:10:32.168Z,101939.90
2022-09-05T04:13:07.809Z,101934.20
2022-09-05T04:15:46.053Z,101941.64
2022-09-05T04:18:25.677Z,101938.80
2022-09-05T04:21:05.090Z,101945.24
2022-09-05T04:23:37.942Z,101947.88
2022-09-05T04:26:14.499Z,101947.17
2022-09-05T04:28:53.201Z,101950.00
2022-09-05T04:31:29.942Z,101950.62
2022-09-05T04:34:21.928Z,101944.34
2022-09-05T04:37:03.769Z,101950.92
2022-09-05T04:39:34.727Z,101960.59
2022-09-05T04:42:09.413Z,101951.66
2022-09-05T04:44:48.087Z,101954.22
2022-09-05T04:47:21.112Z,101957.06
2022-09-05T04:50:10.376Z,101967.85
2022-09-05T04:52:43.022Z,101961.73
2022-09-05T04:55:18.501Z,101966.18
2022-09-05T04:58:07.544Z,101962.58
2022-09-05T05:06:01.008Z,101964.73
2022-09-05T05:06:16.461Z,101968.25
2022-09-05T05:06:30.087Z,101966.73
2022-09-05T05:08:43.818Z,101964.64
2022-09-05T05:18:03.433Z,101965.70
2022-09-05T05:18:11.320Z,101966.36
2022-09-05T05:18:11.987Z,101972.31
2022-09-05T05:23:07.385Z,101960.42
2022-09-05T05:25:52.571Z,101960.42
2022-09-05T05:28:34.514Z,101957.91
2022-09-05T05:31:16.031Z,101938.20
2022-09-05T05:33:48.890Z,101938.20
2022-09-05T05:36:21.723Z,101958.83
2022-09-05T05:39:00.488Z,101957.67
2022-09-05T05:41:48.383Z,101963.98
2022-09-05T05:44:21.454Z,101963.98
2022-09-05T05:47:03.244Z,101957.62
2022-09-05T05:49:38.839Z,101956.50
2022-09-05T05:52:29.572Z,101952.66
2022-09-05T05:55:50.625Z,101953.73
2022-09-05T05:58:11.921Z,101956.46
2022-09-05T06:00:51.914Z,101965.52
2022-09-05T06:03:51.969Z,101960.13
2022-09-05T06:06:33.741Z,101958.05
2022-09-05T06:14:51.551Z,101964.48
2022-09-05T06:15:00.623Z,101966.16
2022-09-05T06:15:24.658Z,101969.81
2022-09-05T06:18:03.435Z,101965.53
2022-09-05T06:22:05.454Z,101968.42
2022-09-05T06:24:10.897Z,101973.05
2022-09-05T06:26:51.981Z,101975.36
2022-09-05T06:29:55.527Z,101977.63
2022-09-05T06:32:55.357Z,101980.58
2022-09-05T06:35:28.098Z,101979.85
2022-09-05T06:38:26.942Z,101983.74
2022-09-05T06:41:02.908Z,101984.00
2022-09-05T06:43:54.339Z,101968.76
2022-09-05T06:46:55.084Z,101977.86
2022-09-05T06:49:30.818Z,101977.86
2022-09-05T06:52:32.935Z,101996.22
2022-09-05T06:55:38.666Z,102001.78
2022-09-05T06:58:27.158Z,101998.52
2022-09-05T07:00:59.792Z,101997.25
2022-09-05T07:03:52.206Z,102000.18
2022-09-05T07:06:49.411Z,102000.92
2022-09-05T07:09:39.110Z,102003.16
2022-09-05T07:12:21.952Z,102002.81
2022-09-05T07:15:08.826Z,101996.58
2022-09-05T07:18:06.185Z,101994.16
2022-09-05T07:20:23.781Z,101990.83
2022-09-05T07:23:47.676Z,101990.27
2022-09-05T07:25:37.487Z,101990.27
2022-09-05T07:28:28.837Z,101996.89
2022-09-05T07:30:44.180Z,101995.83
2022-09-05T07:33:22.523Z,101995.10
2022-09-05T07:35:53.530Z,101989.28
2022-09-05T07:38:35.289Z,101975.06
2022-09-05T07:41:06.972Z,101975.06
2022-09-05T07:43:40.085Z,101989.46
2022-09-05T07:46:15.807Z,101983.64
2022-09-05T07:48:48.409Z,101992.08
2022-09-05T07:56:55.459Z,101990.17
2022-09-05T07:57:08.355Z,101988.17
2022-09-05T07:57:23.148Z,101992.65
2022-09-05T07:59:19.221Z,101996.58
2022-09-05T08:01:52.162Z,101992.66
2022-09-05T08:04:32.080Z,101993.48
2022-09-05T08:07:48.759Z,101997.28
2022-09-05T08:10:07.063Z,101994.02
2022-09-05T08:12:27.839Z,101993.52
2022-09-05T08:15:06.607Z,101989.03
2022-09-05T08:17:59.089Z,101969.64
2022-09-05T08:20:55.693Z,101969.64
2022-09-05T08:23:37.610Z,101987.48
2022-09-05T08:26:28.954Z,101992.66
2022-09-05T08:29:30.368Z,101999.94
2022-09-05T08:32:14.691Z,101997.39
2022-09-05T08:34:47.506Z,102000.98
2022-09-05T08:37:22.870Z,101994.88
2022-09-05T08:40:10.362Z,102000.62
2022-09-05T08:42:35.346Z,101994.12
2022-09-05T08:46:43.349Z,101997.38
2022-09-05T08:48:17.990Z,101996.23
2022-09-05T08:51:24.962Z,101995.56
2022-09-05T08:54:21.172Z,101996.27
2022-09-05T08:57:02.515Z,101994.44
2022-09-05T09:00:18.546Z,101996.11
2022-09-05T09:02:47.229Z,101995.34
2022-09-05T09:05:58.112Z,101995.58
2022-09-05T09:08:15.676Z,101987.16
2022-09-05T09:10:55.422Z,101979.16
2022-09-05T09:13:37.212Z,101986.41
2022-09-05T09:18:56.268Z,101972.91
2022-09-05T09:21:49.036Z,101973.92
2022-09-05T09:24:40.816Z,101977.41
2022-09-05T09:27:31.343Z,101964.68
2022-09-05T09:29:56.373Z,101967.88
2022-09-05T09:32:26.725Z,101964.77
2022-09-05T09:34:59.527Z,101945.83
2022-09-05T09:37:59.390Z,101945.83
2022-09-05T09:40:28.013Z,101963.23
2022-09-05T09:43:15.716Z,101964.06
2022-09-05T09:45:57.144Z,101967.36
2022-09-05T09:48:50.290Z,101966.13
2022-09-05T09:51:47.270Z,101956.28
2022-09-05T09:54:28.709Z,101948.07
2022-09-05T09:57:20.010Z,101955.06
2022-09-05T09:59:59.359Z,101943.77
2022-09-05T10:06:30.305Z,101946.80
2022-09-05T10:10:44.345Z,101943.50
2022-09-05T10:10:48.643Z,101938.86
2022-09-05T10:11:40.179Z,101945.41
2022-09-05T10:13:44.956Z,101945.09
2022-09-05T10:16:34.695Z,101939.53
2022-09-05T10:20:07.527Z,101931.17
2022-09-05T10:25:19.450Z,101908.23
2022-09-05T10:27:57.892Z,101908.23
2022-09-05T10:31:18.333Z,101914.89
2022-09-05T10:35:14.307Z,101910.02
2022-09-05T10:36:31.855Z,101909.30
2022-09-05T10:39:23.896Z,101901.36
2022-09-05T10:42:25.236Z,101902.91
2022-09-05T10:44:57.884Z,101896.76
2022-09-05T10:47:33.536Z,101889.47
2022-09-05T10:50:31.325Z,101896.20
2022-09-05T10:53:06.603Z,101892.59
2022-09-05T11:02:16.294Z,101892.66
2022-09-05T11:02:30.484Z,101892.72
2022-09-05T11:04:46.616Z,101889.66
2022-09-05T11:07:29.396Z,101886.59
2022-09-05T11:10:04.156Z,101884.37
2022-09-05T11:12:57.779Z,101888.02
2022-09-05T11:16:03.996Z,101890.70
2022-09-05T11:18:30.343Z,101885.80
2022-09-05T11:21:32.249Z,101881.53
2022-09-05T11:24:27.629Z,101883.09
2022-09-05T11:27:23.662Z,101877.56
2022-09-05T11:29:45.437Z,101853.77
2022-09-05T11:36:30.912Z,101853.77
2022-09-05T11:39:51.442Z,101872.20
2022-09-05T11:39:57.302Z,101873.84
2022-09-05T11:40:59.161Z,101873.84
2022-09-05T11:43:39.629Z,101865.81
2022-09-05T11:46:33.149Z,101866.64
2022-09-05T11:49:08.475Z,101870.84
2022-09-05T11:52:09.737Z,101863.16
2022-09-05T11:55:04.718Z,101857.09
2022-09-05T11:57:49.809Z,101863.23
2022-09-05T12:00:31.614Z,101855.30
2022-09-05T12:03:53.542Z,101852.53
2022-09-05T12:06:21.220Z,101855.41
2022-09-05T12:08:57.006Z,101855.12
2022-09-05T12:11:43.209Z,101855.28
2022-09-05T12:14:31.442Z,101858.19
2022-09-05T12:17:10.176Z,101855.47
2022-09-05T12:19:41.982Z,101826.51
2022-09-05T12:22:32.685Z,101826.51
2022-09-05T12:27:20.913Z,101845.06
2022-09-05T12:28:28.557Z,101841.88
2022-09-05T12:30:42.385Z,101846.87
2022-09-05T12:35:59.502Z,101852.41
2022-09-05T12:40:48.317Z,101847.33
2022-09-05T12:40:59.843Z,101843.61
2022-09-05T12:41:42.900Z,101818.97
2022-09-05T12:44:37.818Z,101818.97
2022-09-05T12:46:37.312Z,101834.21
2022-09-05T12:49:11.995Z,101826.30
2022-09-05T12:51:47.682Z,101827.84
2022-09-05T12:54:38.253Z,101826.27
2022-09-05T13:01:08.146Z,101820.72
2022-09-05T13:03:07.069Z,101826.78
2022-09-05T13:03:14.501Z,101829.55
2022-09-05T13:05:01.920Z,101815.20
2022-09-05T13:07:43.962Z,101820.44
2022-09-05T13:13:56.611Z,101815.40
2022-09-05T13:14:54.537Z,101817.17
2022-09-05T13:15:37.295Z,101817.92
2022-09-05T13:18:17.379Z,101812.61
2022-09-05T13:21:08.432Z,101817.14
2022-09-05T13:23:41.830Z,101805.61
2022-09-05T13:26:23.964Z,101801.98
2022-09-05T13:29:09.993Z,101801.23
2022-09-05T13:37:54.813Z,101788.59
2022-09-05T13:38:04.393Z,101795.96
2022-09-05T13:38:14.440Z,101788.59
2022-09-05T13:39:55.264Z,101803.47
2022-09-05T13:42:33.801Z,101797.30
2022-09-05T13:45:04.102Z,101799.69
2022-09-05T13:47:51.606Z,101798.80
2022-09-05T13:50:29.653Z,101789.33
2022-09-05T13:53:24.754Z,101788.34
2022-09-05T13:56:03.505Z,101777.17
2022-09-05T13:58:42.637Z,101780.84
2022-09-05T14:01:25.753Z,101774.70
2022-09-05T14:10:29.160Z,101748.19
2022-09-05T14:13:24.394Z,101762.27
2022-09-05T14:16:02.719Z,101764.78
2022-09-05T14:18:36.596Z,101758.24
2022-09-05T14:21:17.105Z,101755.28
2022-09-05T14:23:58.300Z,101755.27
2022-09-05T14:26:39.883Z,101764.53
2022-09-05T14:29:14.456Z,101758.44
2022-09-05T14:37:41.384Z,101751.13
2022-09-05T14:37:59.418Z,101751.87
2022-09-05T14:38:15.135Z,101745.23
2022-09-05T14:41:18.445Z,101745.45
2022-09-05T14:44:07.836Z,101744.78
2022-09-05T14:46:42.962Z,101739.59
2022-09-05T14:49:51.117Z,101735.19
2022-09-05T14:52:35.469Z,101728.28
2022-09-05T15:02:43.486Z,101729.23
2022-09-05T15:02:44.857Z,101730.96
2022-09-05T15:03:03.786Z,101724.45
2022-09-05T15:05:32.584Z,101715.28
2022-09-05T15:08:16.249Z,101714.72
2022-09-05T15:12:18.914Z,101715.86
2022-09-05T15:13:19.477Z,101717.48
2022-09-05T15:16:02.532Z,101712.58
2022-09-05T15:18:31.504Z,101713.70
2022-09-05T15:21:33.198Z,101707.41
2022-09-05T15:24:03.637Z,101710.94
2022-09-05T15:26:34.792Z,101706.22
2022-09-05T15:29:14.691Z,101708.55
2022-09-05T15:31:45.482Z,101704.80
2022-09-05T15:34:28.994Z,101712.92
2022-09-05T15:37:09.131Z,101704.17
2022-09-05T15:39:32.179Z,101699.33
2022-09-05T15:42:16.866Z,101702.33
2022-09-05T15:45:08.751Z,101704.27
2022-09-05T15:47:24.287Z,101697.95
2022-09-05T15:50:00.378Z,101695.47
2022-09-05T15:52:41.822Z,101694.73
2022-09-05T15:55:23.135Z,101699.17
2022-09-05T15:57:55.965Z,101692.83
2022-09-05T16:00:51.230Z,101683.66
2022-09-05T16:04:28.705Z,101683.66
2022-09-05T16:10:40.125Z,101694.45
2022-09-05T16:10:49.438Z,101692.92
2022-09-05T16:11:59.490Z,101691.15
2022-09-05T16:14:11.276Z,101685.47
2022-09-05T16:23:11.753Z,101687.92
2022-09-05T16:23:15.839Z,101686.55
2022-09-05T16:23:32.259Z,101683.75
2022-09-05T16:24:59.908Z,101675.86
2022-09-05T16:27:03.286Z,101657.48
2022-09-05T16:29:36.085Z,101657.48
2022-09-05T16:32:29.109Z,101673.59
2022-09-05T16:35:14.131Z,101670.61
2022-09-05T16:37:52.442Z,101666.12
2022-09-05T16:40:27.573Z,101663.97
2022-09-05T16:43:00.378Z,101662.30
2022-09-05T16:45:49.361Z,101661.14
2022-09-05T16:48:50.130Z,101654.37
2022-09-05T16:51:35.777Z,101662.17
2022-09-05T16:54:40.919Z,101652.60
2022-09-05T16:57:13.469Z,101650.16
2022-09-05T16:59:45.656Z,101652.89
2022-09-05T17:02:40.308Z,101663.46
2022-09-05T17:05:15.695Z,101656.25
2022-09-05T17:08:00.613Z,101650.42
2022-09-05T17:13:40.901Z,101655.28
2022-09-05T17:16:17.164Z,101649.91
2022-09-05T17:18:51.470Z,101651.36
2022-09-05T17:24:21.669Z,101649.31
2022-09-05T17:29:17.194Z,101647.48
2022-09-05T17:29:30.088Z,101640.34
2022-09-05T17:32:16.144Z,101638.42
2022-09-05T17:34:52.592Z,101639.94
2022-09-05T17:38:11.433Z,101636.74
2022-09-05T17:40:37.759Z,101645.77
2022-09-05T17:43:29.167Z,101642.70
2022-09-05T17:46:18.520Z,101647.65
2022-09-05T17:49:18.726Z,101648.58
2022-09-05T17:51:31.663Z,101653.84
2022-09-05T17:54:06.112Z,101652.44
2022-09-05T17:56:40.691Z,101649.05
2022-09-05T17:59:24.461Z,101632.66
2022-09-05T18:02:12.218Z,101632.66
2022-09-05T18:04:50.649Z,101651.58
2022-09-05T18:07:32.714Z,101643.35
2022-09-05T18:10:14.492Z,101643.35
2022-09-05T18:13:14.253Z,101661.21
2022-09-05T18:15:32.547Z,101656.24
2022-09-05T18:18:07.006Z,101652.62
2022-09-05T18:21:09.363Z,101656.84
2022-09-05T18:23:39.757Z,101660.16
2022-09-05T18:26:24.140Z,101659.27
2022-09-05T18:29:02.758Z,101660.66
2022-09-05T18:31:43.541Z,101662.06
2022-09-05T18:34:19.303Z,101662.59
2022-09-05T18:36:56.128Z,101657.52
2022-09-05T18:39:29.549Z,101662.81
2022-09-05T18:42:33.682Z,101660.64
2022-09-05T18:44:49.793Z,101658.09
2022-09-05T18:47:33.902Z,101656.08
2022-09-05T18:50:24.409Z,101652.80
2022-09-05T18:52:38.951Z,101654.36
2022-09-05T18:56:12.453Z,101659.81
2022-09-05T18:58:08.941Z,101668.58
2022-09-05T19:00:44.778Z,101654.95
2022-09-05T19:03:31.419Z,101663.34
2022-09-05T19:06:34.607Z,101668.95
2022-09-05T19:08:47.041Z,101664.84
2022-09-05T19:11:28.186Z,101675.22
2022-09-05T19:14:25.789Z,101673.30
2022-09-05T19:16:43.442Z,101669.20
2022-09-05T19:19:16.738Z,101670.95
2022-09-05T19:22:33.305Z,101664.42
2022-09-05T19:24:42.683Z,101680.25
2022-09-05T19:27:28.000Z,101698.91
2022-09-05T19:36:47.359Z,101698.34
2022-09-05T19:36:51.244Z,101700.38
2022-09-05T19:37:13.893Z,101698.67
2022-09-05T19:37:26.322Z,101685.41
2022-09-05T19:46:17.059Z,101685.41
2022-09-05T19:47:30.684Z,101695.47
2022-09-05T19:47:41.361Z,101696.40
2022-09-05T19:50:11.251Z,101689.23
2022-09-05T19:52:41.123Z,101709.83
2022-09-05T19:55:25.958Z,101716.88
2022-09-05T19:58:19.174Z,101707.42
2022-09-05T20:00:29.192Z,101699.86
2022-09-05T20:03:01.073Z,101686.45
2022-09-05T20:05:31.266Z,101670.25
2022-09-05T20:08:01.964Z,101670.25
2022-09-05T20:10:34.381Z,101691.09
2022-09-05T20:13:15.763Z,101660.19
2022-09-05T20:15:45.933Z,101660.19
2022-09-05T20:18:21.433Z,101679.12
2022-09-05T20:20:57.147Z,101684.38
2022-09-05T20:23:31.021Z,101677.39
2022-09-05T20:26:01.927Z,101679.59
2022-09-05T20:28:37.974Z,101683.77
2022-09-05T20:31:10.805Z,101679.60
2022-09-05T20:33:43.589Z,101674.84
2022-09-05T20:42:35.549Z,101675.34
2022-09-05T20:43:21.186Z,101669.28
2022-09-05T20:43:28.825Z,101670.78
2022-09-05T20:44:15.525Z,101672.11
2022-09-05T20:54:10.174Z,101677.18
2022-09-05T20:54:17.177Z,101674.73
2022-09-05T20:54:18.858Z,101679.94
2022-09-05T20:54:53.179Z,101665.20
2022-09-05T20:57:28.930Z,101663.02
2022-09-05T21:00:07.565Z,101665.23
2022-09-05T21:02:37.139Z,101667.70
2022-09-05T21:05:21.113Z,101666.33
2022-09-05T21:07:46.046Z,101648.17
2022-09-05T21:10:23.380Z,101648.17
2022-09-05T21:12:58.939Z,101664.61
2022-09-05T21:15:53.029Z,101662.09
2022-09-05T21:18:15.985Z,101660.75
2022-09-05T21:21:29.025Z,101666.61
2022-09-05T21:23:40.137Z,101681.18
2022-09-05T21:26:25.193Z,101705.48
2022-09-05T21:29:08.940Z,101739.89
2022-09-05T21:31:54.360Z,101755.52
2022-09-05T21:34:25.068Z,101754.55
2022-09-05T21:37:06.828Z,101754.55
2022-09-05T21:39:34.770Z,101746.80
2022-09-05T21:43:36.126Z,101723.39
2022-09-05T21:47:43.438Z,101734.41
2022-09-05T21:47:46.381Z,101733.47
2022-09-05T21:49:41.052Z,101721.84
2022-09-05T21:52:11.685Z,101709.95
2022-09-05T21:56:35.960Z,101698.84
2022-09-05T21:59:28.692Z,101695.51
2022-09-05T22:00:07.085Z,101704.34
2022-09-05T22:02:32.473Z,101710.63
2022-09-05T22:05:04.646Z,101714.72
2022-09-05T22:07:37.466Z,101710.31
2022-09-05T22:10:10.362Z,101707.77
2022-09-05T22:12:40.480Z,101704.70
2022-09-05T22:15:29.121Z,101703.91
2022-09-05T22:17:47.080Z,101707.02
2022-09-05T22:20:20.869Z,101704.78
2022-09-05T22:22:56.576Z,101700.32
2022-09-05T22:25:28.664Z,101705.13
2022-09-05T22:28:07.348Z,101698.93
2022-09-05T22:30:38.681Z,101694.87
2022-09-05T22:33:09.860Z,101692.80
2022-09-05T22:35:40.208Z,101691.65
2022-09-05T22:38:17.846Z,101686.39
2022-09-05T22:40:44.571Z,101662.33
2022-09-05T22:43:14.503Z,101662.33
2022-09-05T22:45:44.270Z,101682.22
2022-09-05T22:48:15.530Z,101684.97
2022-09-05T22:50:45.461Z,101687.75
2022-09-05T22:53:15.455Z,101694.99
2022-09-05T22:55:45.580Z,101695.86
2022-09-05T22:58:16.600Z,101710.07
2022-09-05T23:00:46.460Z,101721.49
2022-09-05T23:03:16.591Z,101748.66
2022-09-05T23:05:47.018Z,101754.35
2022-09-05T23:08:16.915Z,101754.35
2022-09-05T23:10:46.391Z,101778.48
2022-09-05T23:13:16.160Z,101787.61
2022-09-05T23:15:45.933Z,101784.60
2022-09-05T23:18:15.684Z,101769.73
2022-09-05T23:20:45.457Z,101758.75
2022-09-05T23:23:15.214Z,101745.97
2022-09-05T23:25:45.011Z,101735.70
2022-09-05T23:28:14.779Z,101731.36
2022-09-05T23:30:44.651Z,101710.53
2022-09-05T23:33:14.705Z,101703.80
2022-09-05T23:35:44.474Z,101691.40
2022-09-05T23:38:14.220Z,101687.94
2022-09-05T23:40:46.252Z,101690.17
2022-09-05T23:43:15.970Z,101688.70
2022-09-05T23:45:47.807Z,101687.64
2022-09-05T23:48:17.757Z,101680.30
2022-09-05T23:50:47.601Z,101677.35
2022-09-05T23:53:18.071Z,101676.00
2022-09-05T23:55:47.930Z,101663.55
2022-09-05T23:58:18.121Z,101642.02
